sensor_id;sensor_type;location;lat;lon;timestamp;P1;durP1;ratioP1;P2;durP2;ratioP2
52948;SDS011;38812;50.942;3.644;2023-03-15T00:01:45;5.22;;;2.13;;
52948;SDS011;38812;50.942;3.644;2023-03-15T00:04:11;8.05;;;2.70;;
52948;SDS011;38812;50.942;3.644;2023-03-15T00:06:37;12.18;;;2.60;;
52948;SDS011;38812;50.942;3.644;2023-03-15T00:09:02;6.75;;;2.40;;
52948;SDS011;38812;50.942;3.644;2023-03-15T00:11:28;9.48;;;2.88;;
52948;SDS011;38812;50.942;3.644;2023-03-15T00:13:57;4.55;;;1.90;;
52948;SDS011;38812;50.942;3.644;2023-03-15T00:16:22;7.18;;;2.17;;
52948;SDS011;38812;50.942;3.644;2023-03-15T00:18:51;10.45;;;2.00;;
52948;SDS011;38812;50.942;3.644;2023-03-15T00:21:18;8.25;;;2.08;;
52948;SDS011;38812;50.942;3.644;2023-03-15T00:23:43;8.32;;;2.03;;
52948;SDS011;38812;50.942;3.644;2023-03-15T00:26:09;9.07;;;1.73;;
52948;SDS011;38812;50.942;3.644;2023-03-15T00:28:35;9.23;;;2.50;;
52948;SDS011;38812;50.942;3.644;2023-03-15T00:33:30;7.85;;;2.53;;
52948;SDS011;38812;50.942;3.644;2023-03-15T00:36:00;8.35;;;2.13;;
52948;SDS011;38812;50.942;3.644;2023-03-15T00:38:27;6.15;;;2.28;;
52948;SDS011;38812;50.942;3.644;2023-03-15T00:40:53;4.03;;;2.50;;
52948;SDS011;38812;50.942;3.644;2023-03-15T00:43:18;6.95;;;1.80;;
52948;SDS011;38812;50.942;3.644;2023-03-15T00:45:44;9.10;;;2.25;;
52948;SDS011;38812;50.942;3.644;2023-03-15T00:48:09;5.88;;;2.10;;
52948;SDS011;38812;50.942;3.644;2023-03-15T00:50:35;5.75;;;2.72;;
52948;SDS011;38812;50.942;3.644;2023-03-15T00:53:00;7.90;;;1.92;;
52948;SDS011;38812;50.942;3.644;2023-03-15T00:55:25;12.48;;;2.30;;
52948;SDS011;38812;50.942;3.644;2023-03-15T00:57:51;5.18;;;1.83;;
52948;SDS011;38812;50.942;3.644;2023-03-15T01:00:17;9.00;;;2.40;;
52948;SDS011;38812;50.942;3.644;2023-03-15T01:02:47;11.60;;;2.50;;
52948;SDS011;38812;50.942;3.644;2023-03-15T01:05:13;10.95;;;2.50;;
52948;SDS011;38812;50.942;3.644;2023-03-15T01:07:38;5.57;;;1.83;;
52948;SDS011;38812;50.942;3.644;2023-03-15T01:10:04;9.05;;;3.00;;
52948;SDS011;38812;50.942;3.644;2023-03-15T01:12:31;16.40;;;3.05;;
52948;SDS011;38812;50.942;3.644;2023-03-15T01:14:58;8.05;;;2.55;;
52948;SDS011;38812;50.942;3.644;2023-03-15T01:17:24;6.80;;;2.63;;
52948;SDS011;38812;50.942;3.644;2023-03-15T01:19:50;8.00;;;2.55;;
52948;SDS011;38812;50.942;3.644;2023-03-15T01:22:16;14.00;;;2.33;;
52948;SDS011;38812;50.942;3.644;2023-03-15T01:24:42;8.50;;;2.15;;
52948;SDS011;38812;50.942;3.644;2023-03-15T01:27:08;6.80;;;1.85;;
52948;SDS011;38812;50.942;3.644;2023-03-15T01:29:33;10.25;;;2.25;;
52948;SDS011;38812;50.942;3.644;2023-03-15T01:31:59;7.18;;;3.28;;
52948;SDS011;38812;50.942;3.644;2023-03-15T01:34:24;11.63;;;2.35;;
52948;SDS011;38812;50.942;3.644;2023-03-15T01:36:49;6.18;;;1.80;;
52948;SDS011;38812;50.942;3.644;2023-03-15T01:39:16;6.82;;;1.70;;
52948;SDS011;38812;50.942;3.644;2023-03-15T01:41:42;7.22;;;1.40;;
52948;SDS011;38812;50.942;3.644;2023-03-15T01:44:11;7.35;;;2.42;;
52948;SDS011;38812;50.942;3.644;2023-03-15T01:46:41;5.55;;;1.65;;
52948;SDS011;38812;50.942;3.644;2023-03-15T01:49:08;6.38;;;1.73;;
52948;SDS011;38812;50.942;3.644;2023-03-15T01:51:39;4.50;;;1.50;;
52948;SDS011;38812;50.942;3.644;2023-03-15T01:54:15;7.03;;;2.03;;
52948;SDS011;38812;50.942;3.644;2023-03-15T01:56:43;9.20;;;1.80;;
52948;SDS011;38812;50.942;3.644;2023-03-15T01:59:16;3.45;;;2.17;;
52948;SDS011;38812;50.942;3.644;2023-03-15T02:01:48;7.53;;;2.00;;
52948;SDS011;38812;50.942;3.644;2023-03-15T02:04:19;4.05;;;2.03;;
52948;SDS011;38812;50.942;3.644;2023-03-15T02:06:49;4.43;;;1.90;;
52948;SDS011;38812;50.942;3.644;2023-03-15T02:09:23;6.68;;;2.42;;
52948;SDS011;38812;50.942;3.644;2023-03-15T02:11:59;10.70;;;3.03;;
52948;SDS011;38812;50.942;3.644;2023-03-15T02:14:26;11.82;;;4.28;;
52948;SDS011;38812;50.942;3.644;2023-03-15T02:16:52;9.80;;;2.22;;
52948;SDS011;38812;50.942;3.644;2023-03-15T02:19:25;7.82;;;2.30;;
52948;SDS011;38812;50.942;3.644;2023-03-15T02:24:49;9.80;;;2.78;;
52948;SDS011;38812;50.942;3.644;2023-03-15T02:27:31;9.48;;;2.15;;
52948;SDS011;38812;50.942;3.644;2023-03-15T02:29:59;13.40;;;3.55;;
52948;SDS011;38812;50.942;3.644;2023-03-15T02:32:27;10.68;;;3.22;;
52948;SDS011;38812;50.942;3.644;2023-03-15T02:34:52;11.57;;;2.63;;
52948;SDS011;38812;50.942;3.644;2023-03-15T02:37:18;6.70;;;2.35;;
52948;SDS011;38812;50.942;3.644;2023-03-15T02:39:43;5.63;;;2.60;;
52948;SDS011;38812;50.942;3.644;2023-03-15T02:42:09;7.88;;;2.70;;
52948;SDS011;38812;50.942;3.644;2023-03-15T02:44:36;11.57;;;2.97;;
52948;SDS011;38812;50.942;3.644;2023-03-15T02:47:04;12.90;;;3.42;;
52948;SDS011;38812;50.942;3.644;2023-03-15T02:49:51;12.88;;;2.70;;
52948;SDS011;38812;50.942;3.644;2023-03-15T02:52:18;10.18;;;3.70;;
52948;SDS011;38812;50.942;3.644;2023-03-15T02:54:44;12.38;;;3.90;;
52948;SDS011;38812;50.942;3.644;2023-03-15T02:57:10;6.15;;;2.70;;
52948;SDS011;38812;50.942;3.644;2023-03-15T02:59:37;11.50;;;3.13;;
52948;SDS011;38812;50.942;3.644;2023-03-15T03:02:03;6.47;;;2.83;;
52948;SDS011;38812;50.942;3.644;2023-03-15T03:04:29;9.15;;;3.40;;
52948;SDS011;38812;50.942;3.644;2023-03-15T03:06:55;7.47;;;3.22;;
52948;SDS011;38812;50.942;3.644;2023-03-15T03:09:21;9.65;;;3.33;;
52948;SDS011;38812;50.942;3.644;2023-03-15T03:11:47;12.18;;;3.78;;
52948;SDS011;38812;50.942;3.644;2023-03-15T03:14:12;8.13;;;3.00;;
52948;SDS011;38812;50.942;3.644;2023-03-15T03:16:38;9.77;;;2.70;;
52948;SDS011;38812;50.942;3.644;2023-03-15T03:19:04;9.32;;;3.42;;
52948;SDS011;38812;50.942;3.644;2023-03-15T03:21:29;17.30;;;3.92;;
52948;SDS011;38812;50.942;3.644;2023-03-15T03:23:55;9.82;;;3.47;;
52948;SDS011;38812;50.942;3.644;2023-03-15T03:26:20;15.05;;;3.35;;
52948;SDS011;38812;50.942;3.644;2023-03-15T03:28:52;8.00;;;3.33;;
52948;SDS011;38812;50.942;3.644;2023-03-15T03:31:19;10.13;;;3.03;;
52948;SDS011;38812;50.942;3.644;2023-03-15T03:33:46;7.25;;;2.80;;
52948;SDS011;38812;50.942;3.644;2023-03-15T03:36:12;9.32;;;3.35;;
52948;SDS011;38812;50.942;3.644;2023-03-15T03:38:41;14.55;;;3.95;;
52948;SDS011;38812;50.942;3.644;2023-03-15T03:41:12;12.60;;;4.47;;
52948;SDS011;38812;50.942;3.644;2023-03-15T03:43:38;10.00;;;3.47;;
52948;SDS011;38812;50.942;3.644;2023-03-15T03:46:04;15.18;;;4.80;;
52948;SDS011;38812;50.942;3.644;2023-03-15T03:48:30;13.25;;;3.97;;
52948;SDS011;38812;50.942;3.644;2023-03-15T03:50:56;13.45;;;3.90;;
52948;SDS011;38812;50.942;3.644;2023-03-15T03:53:23;9.30;;;3.72;;
52948;SDS011;38812;50.942;3.644;2023-03-15T03:55:48;12.15;;;4.03;;
52948;SDS011;38812;50.942;3.644;2023-03-15T03:58:14;11.95;;;3.85;;
52948;SDS011;38812;50.942;3.644;2023-03-15T04:00:39;9.77;;;4.55;;
52948;SDS011;38812;50.942;3.644;2023-03-15T04:03:06;9.40;;;3.67;;
52948;SDS011;38812;50.942;3.644;2023-03-15T04:05:32;10.55;;;3.58;;
52948;SDS011;38812;50.942;3.644;2023-03-15T04:07:57;9.93;;;3.38;;
52948;SDS011;38812;50.942;3.644;2023-03-15T04:10:23;8.35;;;3.30;;
52948;SDS011;38812;50.942;3.644;2023-03-15T04:12:54;7.90;;;4.53;;
52948;SDS011;38812;50.942;3.644;2023-03-15T04:15:21;13.13;;;3.67;;
52948;SDS011;38812;50.942;3.644;2023-03-15T04:17:48;9.98;;;4.05;;
52948;SDS011;38812;50.942;3.644;2023-03-15T04:20:19;14.82;;;3.92;;
52948;SDS011;38812;50.942;3.644;2023-03-15T04:22:48;9.43;;;3.90;;
52948;SDS011;38812;50.942;3.644;2023-03-15T04:25:17;12.77;;;4.15;;
52948;SDS011;38812;50.942;3.644;2023-03-15T04:27:43;10.35;;;3.88;;
52948;SDS011;38812;50.942;3.644;2023-03-15T04:30:09;12.20;;;4.25;;
52948;SDS011;38812;50.942;3.644;2023-03-15T04:32:35;12.43;;;5.13;;
52948;SDS011;38812;50.942;3.644;2023-03-15T04:35:01;8.32;;;4.50;;
52948;SDS011;38812;50.942;3.644;2023-03-15T04:37:27;8.45;;;4.28;;
52948;SDS011;38812;50.942;3.644;2023-03-15T04:39:52;13.02;;;4.97;;
52948;SDS011;38812;50.942;3.644;2023-03-15T04:42:18;13.88;;;5.20;;
52948;SDS011;38812;50.942;3.644;2023-03-15T04:44:44;20.30;;;4.80;;
52948;SDS011;38812;50.942;3.644;2023-03-15T04:47:10;16.73;;;6.45;;
52948;SDS011;38812;50.942;3.644;2023-03-15T04:49:36;13.30;;;5.55;;
52948;SDS011;38812;50.942;3.644;2023-03-15T04:52:01;8.43;;;5.72;;
52948;SDS011;38812;50.942;3.644;2023-03-15T04:54:26;13.35;;;6.75;;
52948;SDS011;38812;50.942;3.644;2023-03-15T04:56:52;17.48;;;6.45;;
52948;SDS011;38812;50.942;3.644;2023-03-15T04:59:17;11.55;;;5.32;;
52948;SDS011;38812;50.942;3.644;2023-03-15T05:01:42;12.90;;;5.72;;
52948;SDS011;38812;50.942;3.644;2023-03-15T05:04:08;10.68;;;5.60;;
52948;SDS011;38812;50.942;3.644;2023-03-15T05:06:33;14.57;;;5.63;;
52948;SDS011;38812;50.942;3.644;2023-03-15T05:08:59;16.33;;;5.57;;
52948;SDS011;38812;50.942;3.644;2023-03-15T05:11:24;11.15;;;6.00;;
52948;SDS011;38812;50.942;3.644;2023-03-15T05:13:50;16.80;;;5.93;;
52948;SDS011;38812;50.942;3.644;2023-03-15T05:16:15;11.07;;;4.45;;
52948;SDS011;38812;50.942;3.644;2023-03-15T05:18:41;12.95;;;4.75;;
52948;SDS011;38812;50.942;3.644;2023-03-15T05:21:09;8.60;;;4.97;;
52948;SDS011;38812;50.942;3.644;2023-03-15T05:23:36;9.13;;;4.57;;
52948;SDS011;38812;50.942;3.644;2023-03-15T05:26:02;12.93;;;5.53;;
52948;SDS011;38812;50.942;3.644;2023-03-15T05:28:27;14.02;;;4.55;;
52948;SDS011;38812;50.942;3.644;2023-03-15T05:30:53;19.65;;;4.82;;
52948;SDS011;38812;50.942;3.644;2023-03-15T05:33:18;18.23;;;4.47;;
52948;SDS011;38812;50.942;3.644;2023-03-15T05:35:44;9.48;;;4.82;;
52948;SDS011;38812;50.942;3.644;2023-03-15T05:38:11;8.90;;;3.70;;
52948;SDS011;38812;50.942;3.644;2023-03-15T05:40:47;11.52;;;4.43;;
52948;SDS011;38812;50.942;3.644;2023-03-15T05:43:12;13.00;;;4.82;;
52948;SDS011;38812;50.942;3.644;2023-03-15T05:45:38;9.40;;;3.72;;
52948;SDS011;38812;50.942;3.644;2023-03-15T05:48:04;6.70;;;3.72;;
52948;SDS011;38812;50.942;3.644;2023-03-15T05:50:29;18.63;;;4.00;;
52948;SDS011;38812;50.942;3.644;2023-03-15T05:52:55;8.82;;;4.13;;
52948;SDS011;38812;50.942;3.644;2023-03-15T05:55:21;12.80;;;4.07;;
52948;SDS011;38812;50.942;3.644;2023-03-15T05:57:47;11.93;;;4.00;;
52948;SDS011;38812;50.942;3.644;2023-03-15T06:00:13;13.18;;;4.32;;
52948;SDS011;38812;50.942;3.644;2023-03-15T06:02:42;9.52;;;4.53;;
52948;SDS011;38812;50.942;3.644;2023-03-15T06:05:08;14.98;;;4.72;;
52948;SDS011;38812;50.942;3.644;2023-03-15T06:07:33;9.30;;;4.35;;
52948;SDS011;38812;50.942;3.644;2023-03-15T06:09:59;12.93;;;4.25;;
52948;SDS011;38812;50.942;3.644;2023-03-15T06:12:24;9.88;;;5.05;;
52948;SDS011;38812;50.942;3.644;2023-03-15T06:14:49;10.48;;;5.32;;
52948;SDS011;38812;50.942;3.644;2023-03-15T06:17:15;13.02;;;5.78;;
52948;SDS011;38812;50.942;3.644;2023-03-15T06:19:40;8.13;;;5.18;;
52948;SDS011;38812;50.942;3.644;2023-03-15T06:22:06;14.05;;;5.18;;
52948;SDS011;38812;50.942;3.644;2023-03-15T06:24:31;11.05;;;5.35;;
52948;SDS011;38812;50.942;3.644;2023-03-15T06:26:57;11.32;;;6.20;;
52948;SDS011;38812;50.942;3.644;2023-03-15T06:29:22;10.15;;;6.10;;
52948;SDS011;38812;50.942;3.644;2023-03-15T06:31:49;11.80;;;6.18;;
52948;SDS011;38812;50.942;3.644;2023-03-15T06:34:14;7.68;;;5.53;;
52948;SDS011;38812;50.942;3.644;2023-03-15T06:36:40;23.20;;;6.63;;
52948;SDS011;38812;50.942;3.644;2023-03-15T06:39:09;16.30;;;8.02;;
52948;SDS011;38812;50.942;3.644;2023-03-15T06:41:36;19.73;;;8.50;;
52948;SDS011;38812;50.942;3.644;2023-03-15T06:44:02;20.70;;;7.93;;
52948;SDS011;38812;50.942;3.644;2023-03-15T06:46:28;15.60;;;7.93;;
52948;SDS011;38812;50.942;3.644;2023-03-15T06:48:53;12.30;;;6.15;;
52948;SDS011;38812;50.942;3.644;2023-03-15T06:51:19;13.57;;;6.13;;
52948;SDS011;38812;50.942;3.644;2023-03-15T06:53:44;7.78;;;5.78;;
52948;SDS011;38812;50.942;3.644;2023-03-15T06:56:10;9.10;;;5.00;;
52948;SDS011;38812;50.942;3.644;2023-03-15T06:58:35;14.63;;;6.32;;
52948;SDS011;38812;50.942;3.644;2023-03-15T07:01:01;15.38;;;5.57;;
52948;SDS011;38812;50.942;3.644;2023-03-15T07:03:26;13.38;;;5.88;;
52948;SDS011;38812;50.942;3.644;2023-03-15T07:05:52;12.30;;;5.22;;
52948;SDS011;38812;50.942;3.644;2023-03-15T07:08:19;13.93;;;5.35;;
52948;SDS011;38812;50.942;3.644;2023-03-15T07:10:45;8.73;;;4.97;;
52948;SDS011;38812;50.942;3.644;2023-03-15T07:13:12;11.80;;;5.55;;
52948;SDS011;38812;50.942;3.644;2023-03-15T07:15:38;11.30;;;5.68;;
52948;SDS011;38812;50.942;3.644;2023-03-15T07:18:03;9.02;;;5.15;;
52948;SDS011;38812;50.942;3.644;2023-03-15T07:20:29;9.93;;;5.28;;
52948;SDS011;38812;50.942;3.644;2023-03-15T07:22:55;8.60;;;4.93;;
52948;SDS011;38812;50.942;3.644;2023-03-15T07:25:21;12.32;;;5.85;;
52948;SDS011;38812;50.942;3.644;2023-03-15T07:27:48;12.93;;;4.60;;
52948;SDS011;38812;50.942;3.644;2023-03-15T07:30:15;11.52;;;4.72;;
52948;SDS011;38812;50.942;3.644;2023-03-15T07:32:41;14.13;;;4.32;;
52948;SDS011;38812;50.942;3.644;2023-03-15T07:35:07;9.95;;;4.82;;
52948;SDS011;38812;50.942;3.644;2023-03-15T07:37:33;7.32;;;4.10;;
52948;SDS011;38812;50.942;3.644;2023-03-15T07:39:58;9.88;;;4.20;;
52948;SDS011;38812;50.942;3.644;2023-03-15T07:42:24;9.02;;;4.13;;
52948;SDS011;38812;50.942;3.644;2023-03-15T07:44:50;9.35;;;4.07;;
52948;SDS011;38812;50.942;3.644;2023-03-15T07:47:16;5.90;;;3.53;;
52948;SDS011;38812;50.942;3.644;2023-03-15T07:49:41;6.95;;;3.25;;
52948;SDS011;38812;50.942;3.644;2023-03-15T07:52:06;10.20;;;3.85;;
52948;SDS011;38812;50.942;3.644;2023-03-15T07:54:32;10.65;;;3.90;;
52948;SDS011;38812;50.942;3.644;2023-03-15T07:56:58;15.50;;;4.38;;
52948;SDS011;38812;50.942;3.644;2023-03-15T07:59:24;12.80;;;4.13;;
52948;SDS011;38812;50.942;3.644;2023-03-15T08:01:49;9.68;;;3.50;;
52948;SDS011;38812;50.942;3.644;2023-03-15T08:04:15;9.57;;;4.20;;
52948;SDS011;38812;50.942;3.644;2023-03-15T08:06:40;7.97;;;3.65;;
52948;SDS011;38812;50.942;3.644;2023-03-15T08:09:06;6.70;;;3.25;;
52948;SDS011;38812;50.942;3.644;2023-03-15T08:11:32;11.00;;;3.30;;
52948;SDS011;38812;50.942;3.644;2023-03-15T08:13:57;11.20;;;3.15;;
52948;SDS011;38812;50.942;3.644;2023-03-15T08:16:23;8.15;;;3.53;;
52948;SDS011;38812;50.942;3.644;2023-03-15T08:18:48;6.43;;;3.03;;
52948;SDS011;38812;50.942;3.644;2023-03-15T08:21:14;11.35;;;2.80;;
52948;SDS011;38812;50.942;3.644;2023-03-15T08:23:39;5.97;;;2.55;;
52948;SDS011;38812;50.942;3.644;2023-03-15T08:26:04;6.03;;;2.90;;
52948;SDS011;38812;50.942;3.644;2023-03-15T08:28:30;15.93;;;3.97;;
52948;SDS011;38812;50.942;3.644;2023-03-15T08:30:55;7.55;;;3.47;;
52948;SDS011;38812;50.942;3.644;2023-03-15T08:33:20;4.57;;;3.03;;
52948;SDS011;38812;50.942;3.644;2023-03-15T08:35:50;5.28;;;2.33;;
52948;SDS011;38812;50.942;3.644;2023-03-15T08:38:18;11.05;;;3.20;;
52948;SDS011;38812;50.942;3.644;2023-03-15T08:40:44;11.00;;;2.70;;
52948;SDS011;38812;50.942;3.644;2023-03-15T08:43:10;6.85;;;2.88;;
52948;SDS011;38812;50.942;3.644;2023-03-15T08:45:36;8.98;;;3.80;;
52948;SDS011;38812;50.942;3.644;2023-03-15T08:48:01;7.18;;;2.22;;
52948;SDS011;38812;50.942;3.644;2023-03-15T08:50:27;5.15;;;2.53;;
52948;SDS011;38812;50.942;3.644;2023-03-15T08:52:55;6.30;;;2.38;;
52948;SDS011;38812;50.942;3.644;2023-03-15T08:55:21;3.88;;;1.70;;
52948;SDS011;38812;50.942;3.644;2023-03-15T08:57:46;7.65;;;2.28;;
52948;SDS011;38812;50.942;3.644;2023-03-15T09:00:12;10.07;;;2.00;;
52948;SDS011;38812;50.942;3.644;2023-03-15T09:02:45;6.63;;;1.88;;
52948;SDS011;38812;50.942;3.644;2023-03-15T09:05:13;5.80;;;1.92;;
52948;SDS011;38812;50.942;3.644;2023-03-15T09:07:39;8.05;;;3.53;;
52948;SDS011;38812;50.942;3.644;2023-03-15T09:10:07;9.80;;;2.20;;
52948;SDS011;38812;50.942;3.644;2023-03-15T09:12:39;4.93;;;2.22;;
52948;SDS011;38812;50.942;3.644;2023-03-15T09:15:09;3.92;;;1.90;;
52948;SDS011;38812;50.942;3.644;2023-03-15T09:17:36;7.43;;;2.17;;
52948;SDS011;38812;50.942;3.644;2023-03-15T09:20:05;5.00;;;1.80;;
52948;SDS011;38812;50.942;3.644;2023-03-15T09:22:38;7.82;;;2.40;;
52948;SDS011;38812;50.942;3.644;2023-03-15T09:25:03;10.73;;;2.58;;
52948;SDS011;38812;50.942;3.644;2023-03-15T09:27:29;3.20;;;1.17;;
52948;SDS011;38812;50.942;3.644;2023-03-15T09:29:55;4.20;;;1.63;;
52948;SDS011;38812;50.942;3.644;2023-03-15T09:32:21;2.13;;;1.30;;
52948;SDS011;38812;50.942;3.644;2023-03-15T09:34:46;6.18;;;2.50;;
52948;SDS011;38812;50.942;3.644;2023-03-15T09:37:12;6.60;;;1.85;;
52948;SDS011;38812;50.942;3.644;2023-03-15T09:39:37;5.63;;;1.58;;
52948;SDS011;38812;50.942;3.644;2023-03-15T09:42:03;6.28;;;1.83;;
52948;SDS011;38812;50.942;3.644;2023-03-15T09:44:46;2.85;;;1.10;;
52948;SDS011;38812;50.942;3.644;2023-03-15T09:52:49;1.77;;;1.10;;
52948;SDS011;38812;50.942;3.644;2023-03-15T09:55:23;2.80;;;1.65;;
52948;SDS011;38812;50.942;3.644;2023-03-15T09:57:57;5.03;;;0.98;;
52948;SDS011;38812;50.942;3.644;2023-03-15T10:00:31;3.38;;;1.45;;
52948;SDS011;38812;50.942;3.644;2023-03-15T10:03:18;6.43;;;1.40;;
52948;SDS011;38812;50.942;3.644;2023-03-15T10:06:10;3.53;;;1.48;;
52948;SDS011;38812;50.942;3.644;2023-03-15T10:08:40;5.05;;;1.08;;
52948;SDS011;38812;50.942;3.644;2023-03-15T10:14:05;4.22;;;1.17;;
52948;SDS011;38812;50.942;3.644;2023-03-15T10:16:43;5.50;;;1.13;;
52948;SDS011;38812;50.942;3.644;2023-03-15T10:19:21;3.88;;;1.15;;
52948;SDS011;38812;50.942;3.644;2023-03-15T10:22:14;2.03;;;1.27;;
52948;SDS011;38812;50.942;3.644;2023-03-15T10:27:31;3.13;;;0.90;;
52948;SDS011;38812;50.942;3.644;2023-03-15T10:30:01;1.98;;;1.00;;
52948;SDS011;38812;50.942;3.644;2023-03-15T10:32:37;2.95;;;1.00;;
52948;SDS011;38812;50.942;3.644;2023-03-15T10:35:16;4.13;;;1.20;;
52948;SDS011;38812;50.942;3.644;2023-03-15T10:37:43;1.80;;;1.10;;
52948;SDS011;38812;50.942;3.644;2023-03-15T10:40:09;4.00;;;1.60;;
52948;SDS011;38812;50.942;3.644;2023-03-15T10:42:45;2.05;;;1.20;;
52948;SDS011;38812;50.942;3.644;2023-03-15T10:45:21;6.63;;;1.80;;
52948;SDS011;38812;50.942;3.644;2023-03-15T10:47:49;8.43;;;1.75;;
52948;SDS011;38812;50.942;3.644;2023-03-15T10:50:31;6.13;;;1.85;;
52948;SDS011;38812;50.942;3.644;2023-03-15T10:52:58;8.27;;;2.00;;
52948;SDS011;38812;50.942;3.644;2023-03-15T10:55:32;3.60;;;1.20;;
52948;SDS011;38812;50.942;3.644;2023-03-15T11:00:58;4.32;;;1.45;;
52948;SDS011;38812;50.942;3.644;2023-03-15T11:03:26;3.38;;;1.35;;
52948;SDS011;38812;50.942;3.644;2023-03-15T11:05:53;3.10;;;1.10;;
52948;SDS011;38812;50.942;3.644;2023-03-15T11:08:21;3.22;;;1.13;;
52948;SDS011;38812;50.942;3.644;2023-03-15T11:10:58;4.32;;;1.10;;
52948;SDS011;38812;50.942;3.644;2023-03-15T11:13:27;5.07;;;1.30;;
52948;SDS011;38812;50.942;3.644;2023-03-15T11:15:57;2.75;;;1.15;;
52948;SDS011;38812;50.942;3.644;2023-03-15T11:18:29;4.60;;;1.20;;
52948;SDS011;38812;50.942;3.644;2023-03-15T11:23:28;5.07;;;1.05;;
52948;SDS011;38812;50.942;3.644;2023-03-15T11:25:58;4.13;;;1.45;;
52948;SDS011;38812;50.942;3.644;2023-03-15T11:28:25;5.85;;;1.90;;
52948;SDS011;38812;50.942;3.644;2023-03-15T11:30:53;4.50;;;1.40;;
52948;SDS011;38812;50.942;3.644;2023-03-15T11:33:31;3.88;;;1.30;;
52948;SDS011;38812;50.942;3.644;2023-03-15T11:36:06;1.90;;;1.00;;
52948;SDS011;38812;50.942;3.644;2023-03-15T11:38:38;2.85;;;1.20;;
52948;SDS011;38812;50.942;3.644;2023-03-15T11:41:55;4.88;;;1.17;;
52948;SDS011;38812;50.942;3.644;2023-03-15T11:44:15;4.80;;;1.45;;
52948;SDS011;38812;50.942;3.644;2023-03-15T11:46:52;1.65;;;0.98;;
52948;SDS011;38812;50.942;3.644;2023-03-15T11:49:34;6.85;;;1.30;;
52948;SDS011;38812;50.942;3.644;2023-03-15T11:52:24;2.60;;;0.93;;
52948;SDS011;38812;50.942;3.644;2023-03-15T11:54:53;1.80;;;1.20;;
52948;SDS011;38812;50.942;3.644;2023-03-15T12:08:47;2.25;;;0.88;;
52948;SDS011;38812;50.942;3.644;2023-03-15T12:14:01;2.42;;;1.20;;
52948;SDS011;38812;50.942;3.644;2023-03-15T12:16:30;7.20;;;1.25;;
52948;SDS011;38812;50.942;3.644;2023-03-15T12:19:08;1.48;;;1.10;;
52948;SDS011;38812;50.942;3.644;2023-03-15T12:21:51;6.10;;;2.22;;
52948;SDS011;38812;50.942;3.644;2023-03-15T12:24:20;6.30;;;1.38;;
52948;SDS011;38812;50.942;3.644;2023-03-15T12:26:49;4.07;;;1.48;;
52948;SDS011;38812;50.942;3.644;2023-03-15T12:29:26;3.50;;;1.20;;
52948;SDS011;38812;50.942;3.644;2023-03-15T12:32:04;3.50;;;1.35;;
52948;SDS011;38812;50.942;3.644;2023-03-15T12:39:41;4.50;;;1.42;;
52948;SDS011;38812;50.942;3.644;2023-03-15T12:42:58;2.37;;;1.17;;
52948;SDS011;38812;50.942;3.644;2023-03-15T12:56:49;3.28;;;1.00;;
52948;SDS011;38812;50.942;3.644;2023-03-15T12:59:02;2.00;;;1.40;;
52948;SDS011;38812;50.942;3.644;2023-03-15T13:01:34;2.80;;;0.85;;
52948;SDS011;38812;50.942;3.644;2023-03-15T13:04:00;1.63;;;0.98;;
52948;SDS011;38812;50.942;3.644;2023-03-15T13:07:03;1.52;;;1.15;;
52948;SDS011;38812;50.942;3.644;2023-03-15T13:12:07;1.85;;;0.95;;
52948;SDS011;38812;50.942;3.644;2023-03-15T13:20:41;2.30;;;1.20;;
52948;SDS011;38812;50.942;3.644;2023-03-15T13:23:28;5.72;;;1.50;;
52948;SDS011;38812;50.942;3.644;2023-03-15T13:29:33;3.50;;;1.25;;
52948;SDS011;38812;50.942;3.644;2023-03-15T13:31:44;1.63;;;0.88;;
52948;SDS011;38812;50.942;3.644;2023-03-15T13:34:20;4.00;;;1.05;;
52948;SDS011;38812;50.942;3.644;2023-03-15T13:36:52;5.72;;;1.10;;
52948;SDS011;38812;50.942;3.644;2023-03-15T13:39:26;2.70;;;0.88;;
52948;SDS011;38812;50.942;3.644;2023-03-15T13:42:00;5.55;;;0.90;;
52948;SDS011;38812;50.942;3.644;2023-03-15T13:44:28;1.02;;;0.68;;
52948;SDS011;38812;50.942;3.644;2023-03-15T13:46:55;3.40;;;0.90;;
52948;SDS011;38812;50.942;3.644;2023-03-15T13:49:21;4.22;;;0.95;;
52948;SDS011;38812;50.942;3.644;2023-03-15T13:51:48;3.40;;;0.95;;
52948;SDS011;38812;50.942;3.644;2023-03-15T13:54:19;4.28;;;1.00;;
52948;SDS011;38812;50.942;3.644;2023-03-15T13:57:12;1.92;;;0.70;;
52948;SDS011;38812;50.942;3.644;2023-03-15T14:02:22;2.03;;;1.10;;
52948;SDS011;38812;50.942;3.644;2023-03-15T14:04:55;3.65;;;1.00;;
52948;SDS011;38812;50.942;3.644;2023-03-15T14:07:33;1.35;;;0.90;;
52948;SDS011;38812;50.942;3.644;2023-03-15T14:12:57;5.13;;;1.02;;
52948;SDS011;38812;50.942;3.644;2023-03-15T14:15:40;1.30;;;0.47;;
52948;SDS011;38812;50.942;3.644;2023-03-15T14:20:40;3.90;;;0.90;;
52948;SDS011;38812;50.942;3.644;2023-03-15T14:23:13;4.07;;;0.93;;
52948;SDS011;38812;50.942;3.644;2023-03-15T14:25:40;1.90;;;1.10;;
52948;SDS011;38812;50.942;3.644;2023-03-15T14:28:09;3.17;;;1.20;;
52948;SDS011;38812;50.942;3.644;2023-03-15T14:30:38;1.95;;;1.30;;
52948;SDS011;38812;50.942;3.644;2023-03-15T14:33:04;2.97;;;1.60;;
52948;SDS011;38812;50.942;3.644;2023-03-15T14:37:59;3.58;;;1.25;;
52948;SDS011;38812;50.942;3.644;2023-03-15T14:40:32;7.18;;;1.70;;
52948;SDS011;38812;50.942;3.644;2023-03-15T14:43:03;7.50;;;2.13;;
52948;SDS011;38812;50.942;3.644;2023-03-15T14:45:30;6.47;;;2.70;;
52948;SDS011;38812;50.942;3.644;2023-03-15T14:47:57;3.08;;;2.10;;
52948;SDS011;38812;50.942;3.644;2023-03-15T14:50:26;6.35;;;2.08;;
52948;SDS011;38812;50.942;3.644;2023-03-15T14:52:55;5.72;;;2.58;;
52948;SDS011;38812;50.942;3.644;2023-03-15T14:55:23;4.28;;;1.80;;
52948;SDS011;38812;50.942;3.644;2023-03-15T14:57:52;4.55;;;1.75;;
52948;SDS011;38812;50.942;3.644;2023-03-15T15:00:17;6.03;;;1.42;;
52948;SDS011;38812;50.942;3.644;2023-03-15T15:02:44;4.38;;;1.20;;
52948;SDS011;38812;50.942;3.644;2023-03-15T15:05:25;1.55;;;0.90;;
52948;SDS011;38812;50.942;3.644;2023-03-15T15:07:52;1.98;;;0.82;;
52948;SDS011;38812;50.942;3.644;2023-03-15T15:10:28;3.05;;;0.80;;
52948;SDS011;38812;50.942;3.644;2023-03-15T15:12:54;5.45;;;1.17;;
52948;SDS011;38812;50.942;3.644;2023-03-15T15:15:20;1.75;;;0.80;;
52948;SDS011;38812;50.942;3.644;2023-03-15T15:17:46;2.92;;;0.80;;
52948;SDS011;38812;50.942;3.644;2023-03-15T15:20:13;3.13;;;0.80;;
52948;SDS011;38812;50.942;3.644;2023-03-15T15:22:40;7.45;;;0.88;;
52948;SDS011;38812;50.942;3.644;2023-03-15T15:25:16;0.98;;;0.85;;
52948;SDS011;38812;50.942;3.644;2023-03-15T15:27:44;2.65;;;1.20;;
52948;SDS011;38812;50.942;3.644;2023-03-15T15:30:14;4.03;;;1.00;;
52948;SDS011;38812;50.942;3.644;2023-03-15T15:32:41;2.10;;;0.95;;
52948;SDS011;38812;50.942;3.644;2023-03-15T15:35:11;7.55;;;2.50;;
52948;SDS011;38812;50.942;3.644;2023-03-15T15:37:38;7.38;;;2.95;;
52948;SDS011;38812;50.942;3.644;2023-03-15T15:40:06;4.40;;;1.83;;
52948;SDS011;38812;50.942;3.644;2023-03-15T15:42:36;2.88;;;1.42;;
52948;SDS011;38812;50.942;3.644;2023-03-15T15:45:01;6.38;;;1.90;;
52948;SDS011;38812;50.942;3.644;2023-03-15T15:47:27;6.35;;;4.13;;
52948;SDS011;38812;50.942;3.644;2023-03-15T15:49:52;2.88;;;1.23;;
52948;SDS011;38812;50.942;3.644;2023-03-15T15:52:18;3.72;;;1.52;;
52948;SDS011;38812;50.942;3.644;2023-03-15T15:54:43;3.15;;;1.30;;
52948;SDS011;38812;50.942;3.644;2023-03-15T15:57:10;7.45;;;1.95;;
52948;SDS011;38812;50.942;3.644;2023-03-15T15:59:37;2.33;;;1.15;;
52948;SDS011;38812;50.942;3.644;2023-03-15T16:02:05;2.65;;;1.27;;
52948;SDS011;38812;50.942;3.644;2023-03-15T16:04:39;5.07;;;1.23;;
52948;SDS011;38812;50.942;3.644;2023-03-15T16:07:04;2.83;;;1.08;;